Terminal Aerodrome Forecast
Issued by NWS Buffalo, NY

Home | Current Version | Previous Version | Text Only | Print | Product List | Glossary On
Versions: 1 2 3 4 5 6 7 8 9 10 11 12 13 14 15 16 17 18 19 20 21 22 23 24 25 26
200
FTUS41 KBUF 130604 AAA
TAFBUF
TAF AMD
KBUF 130604Z 1306/1406 27015G23KT 2SM -SN BKN020
     FM130800 29015G24KT P6SM OVC020
      TEMPO 1308/1309 1SM -SHSN OVC007
     FM131800 28012KT P6SM BKN070
     FM140000 00000KT P6SM BKN050
     FM140200 VRB03KT 2SM -SN OVC035
     FM140400 02004KT 2SM -SN OVC025=

USA.gov is the U.S. government's official web portal to all federal, state and local government web resources and services.